createdAt,value
2022-10-15T00:00:42.195Z,17.03
2022-10-15T00:03:08.513Z,18.67
2022-10-15T00:05:38.371Z,15.07
2022-10-15T00:08:05.462Z,16.07
2022-10-15T00:10:32.037Z,18.23
2022-10-15T00:12:58.412Z,16.63
2022-10-15T00:15:24.787Z,17.30
2022-10-15T00:17:51.218Z,18.10
2022-10-15T00:20:17.654Z,25.53
2022-10-15T00:22:44.016Z,26.77
2022-10-15T00:25:10.416Z,19.07
2022-10-15T00:27:37.264Z,17.90
2022-10-15T00:30:04.795Z,23.60
2022-10-15T00:32:31.186Z,19.73
2022-10-15T00:34:57.853Z,20.97
2022-10-15T00:37:24.642Z,21.00
2022-10-15T00:39:51.088Z,19.00
2022-10-15T00:42:17.865Z,19.47
2022-10-15T00:44:49.185Z,26.00
2022-10-15T00:47:17.741Z,24.17
2022-10-15T00:49:46.421Z,20.93
2022-10-15T00:52:16.117Z,27.50
2022-10-15T00:54:44.350Z,22.33
2022-10-15T00:57:11.194Z,19.67
2022-10-15T00:59:39.413Z,24.10
2022-10-15T01:02:06.650Z,24.00
2022-10-15T01:04:33.325Z,23.00
2022-10-15T01:06:59.734Z,22.47
2022-10-15T01:09:26.426Z,20.13
2022-10-15T01:11:54.040Z,25.50
2022-10-15T01:14:26.163Z,24.33
2022-10-15T01:16:56.081Z,23.70
2022-10-15T01:19:22.375Z,30.73
2022-10-15T01:21:55.041Z,28.10
2022-10-15T01:24:33.997Z,26.30
2022-10-15T01:27:06.224Z,32.60
2022-10-15T01:29:51.373Z,26.97
2022-10-15T01:32:27.154Z,29.97
2022-10-15T01:35:08.452Z,32.77
2022-10-15T01:37:55.036Z,30.73
2022-10-15T01:40:25.629Z,32.03
2022-10-15T01:42:56.650Z,31.00
2022-10-15T01:45:27.572Z,33.23
2022-10-15T01:47:56.159Z,30.40
2022-10-15T01:50:23.923Z,30.70
2022-10-15T01:52:51.702Z,32.57
2022-10-15T01:55:19.606Z,34.93
2022-10-15T01:57:46.226Z,33.83
2022-10-15T02:00:12.675Z,34.30
2022-10-15T02:02:39.374Z,29.87
2022-10-15T02:05:07.617Z,32.43
2022-10-15T02:07:40.093Z,30.93
2022-10-15T02:10:15.506Z,32.27
2022-10-15T02:12:44.826Z,31.20
2022-10-15T02:15:31.037Z,34.57
2022-10-15T02:18:05.299Z,28.83
2022-10-15T02:20:50.016Z,32.43
2022-10-15T02:23:19.741Z,30.27
2022-10-15T02:25:47.625Z,32.87
2022-10-15T02:28:15.001Z,35.20
2022-10-15T02:30:42.455Z,34.60
2022-10-15T02:33:09.237Z,35.10
2022-10-15T02:35:35.855Z,34.37
2022-10-15T02:38:04.212Z,33.43
2022-10-15T02:40:32.756Z,35.40
2022-10-15T02:42:59.950Z,38.50
2022-10-15T02:45:26.319Z,35.50
2022-10-15T02:47:52.630Z,33.00
2022-10-15T02:50:19.002Z,34.30
2022-10-15T02:52:45.354Z,35.67
2022-10-15T02:55:12.052Z,34.77
2022-10-15T02:57:38.613Z,32.77
2022-10-15T03:00:05.326Z,37.17
2022-10-15T03:02:31.646Z,34.67
2022-10-15T03:04:57.992Z,36.13
2022-10-15T03:07:24.640Z,33.80
2022-10-15T03:09:51.221Z,36.57
2022-10-15T03:12:17.708Z,30.13
2022-10-15T03:14:44.047Z,30.70
2022-10-15T03:17:10.370Z,30.83
2022-10-15T03:19:36.721Z,31.90
2022-10-15T03:22:03.054Z,29.40
2022-10-15T03:24:29.370Z,30.13
2022-10-15T03:26:55.714Z,28.80
2022-10-15T03:29:22.065Z,30.37
2022-10-15T03:31:49.030Z,25.37
2022-10-15T03:34:15.505Z,27.50
2022-10-15T03:36:41.851Z,28.37
2022-10-15T03:39:08.533Z,26.40
2022-10-15T03:41:34.899Z,27.97
2022-10-15T03:44:02.139Z,46.03
2022-10-15T03:46:28.459Z,33.40
2022-10-15T03:48:54.779Z,25.27
2022-10-15T03:51:24.500Z,28.43
2022-10-15T03:53:53.430Z,32.03
2022-10-15T03:56:19.777Z,31.10
2022-10-15T03:58:46.363Z,29.77
2022-10-15T04:01:14.243Z,34.70
2022-10-15T04:03:40.749Z,35.47
2022-10-15T04:06:07.474Z,33.57
2022-10-15T04:08:34.235Z,33.37
2022-10-15T04:11:00.687Z,30.10
2022-10-15T04:13:27.867Z,32.77
2022-10-15T04:15:54.248Z,30.30
2022-10-15T04:18:21.897Z,38.13
2022-10-15T04:20:48.731Z,30.93
2022-10-15T04:23:15.697Z,33.70
2022-10-15T04:25:42.150Z,31.03
2022-10-15T04:28:09.048Z,32.03
2022-10-15T04:30:35.562Z,35.83
2022-10-15T04:33:01.928Z,105.10
2022-10-15T04:35:28.284Z,38.60
2022-10-15T04:37:54.624Z,40.87
2022-10-15T04:40:21.042Z,32.03
2022-10-15T04:42:47.377Z,39.33
2022-10-15T04:45:13.835Z,36.93
2022-10-15T04:47:40.219Z,35.33
2022-10-15T04:50:06.805Z,37.33
2022-10-15T04:52:34.455Z,37.73
2022-10-15T04:55:02.969Z,39.27
2022-10-15T04:57:29.308Z,43.27
2022-10-15T04:59:57.734Z,43.37
2022-10-15T05:02:24.457Z,43.60
2022-10-15T05:04:50.894Z,42.97
2022-10-15T05:07:17.212Z,39.90
2022-10-15T05:09:46.286Z,39.63
2022-10-15T05:12:12.960Z,43.83
2022-10-15T05:14:39.289Z,47.93
2022-10-15T05:17:05.633Z,48.43
2022-10-15T05:19:32.026Z,53.27
2022-10-15T05:21:58.391Z,43.07
2022-10-15T05:24:24.802Z,43.23
2022-10-15T05:26:51.163Z,46.33
2022-10-15T05:29:17.501Z,46.47
2022-10-15T05:31:43.913Z,42.90
2022-10-15T05:34:10.266Z,49.87
2022-10-15T05:36:37.098Z,45.00
2022-10-15T05:39:04.447Z,46.60
2022-10-15T05:41:31.203Z,44.70
2022-10-15T05:43:58.426Z,41.03
2022-10-15T05:46:25.139Z,45.60
2022-10-15T05:48:52.292Z,47.57
2022-10-15T05:51:18.742Z,45.17
2022-10-15T05:53:46.405Z,46.00
2022-10-15T05:56:13.631Z,44.80
2022-10-15T05:58:40.677Z,42.37
2022-10-15T06:01:08.516Z,38.63
2022-10-15T06:03:35.082Z,44.27
2022-10-15T06:06:01.624Z,44.83
2022-10-15T06:08:28.633Z,44.20
2022-10-15T06:10:56.203Z,43.20
2022-10-15T06:13:23.356Z,45.43
2022-10-15T06:15:49.762Z,45.53
2022-10-15T06:18:16.444Z,49.00
2022-10-15T06:20:43.668Z,46.37
2022-10-15T06:23:10.625Z,44.67
2022-10-15T06:25:37.069Z,56.27
2022-10-15T06:28:07.322Z,43.83
2022-10-15T06:30:33.747Z,53.63
2022-10-15T06:33:00.232Z,48.47
2022-10-15T06:35:27.100Z,47.33
2022-10-15T06:37:53.533Z,54.63
2022-10-15T06:40:19.895Z,50.53
2022-10-15T06:42:46.235Z,46.07
2022-10-15T06:45:13.433Z,47.63
2022-10-15T06:47:40.632Z,53.13
2022-10-15T06:50:07.630Z,49.47
2022-10-15T06:52:34.174Z,51.37
2022-10-15T06:55:00.764Z,49.93
2022-10-15T06:57:27.601Z,49.80
2022-10-15T06:59:54.039Z,48.93
2022-10-15T07:02:20.816Z,48.50
2022-10-15T07:04:47.458Z,51.20
2022-10-15T07:07:14.180Z,49.87
2022-10-15T07:09:40.498Z,50.93
2022-10-15T07:12:06.929Z,48.83
2022-10-15T07:14:33.267Z,52.17
2022-10-15T07:16:59.599Z,45.67
2022-10-15T07:19:26.319Z,47.63
2022-10-15T07:21:52.655Z,55.80
2022-10-15T07:24:18.994Z,46.07
2022-10-15T07:26:47.214Z,47.30
2022-10-15T07:29:13.609Z,45.87
2022-10-15T07:31:40.010Z,46.87
2022-10-15T07:34:06.396Z,50.87
2022-10-15T07:36:32.724Z,42.47
2022-10-15T07:38:59.035Z,46.00
2022-10-15T07:41:25.441Z,47.90
2022-10-15T07:43:52.298Z,47.33
2022-10-15T07:46:18.687Z,43.77
2022-10-15T07:48:45.092Z,43.77
2022-10-15T07:51:11.888Z,45.33
2022-10-15T07:53:38.439Z,45.80
2022-10-15T07:56:08.986Z,53.80
2022-10-15T07:58:37.996Z,44.47
2022-10-15T08:01:08.138Z,48.07
2022-10-15T08:03:34.782Z,44.10
2022-10-15T08:06:01.919Z,40.43
2022-10-15T08:08:28.594Z,39.87
2022-10-15T08:10:55.040Z,38.93
2022-10-15T08:13:21.918Z,45.17
2022-10-15T08:15:48.247Z,37.47
2022-10-15T08:18:14.587Z,36.20
2022-10-15T08:20:41.024Z,41.30
2022-10-15T08:23:13.583Z,37.47
2022-10-15T08:25:40.991Z,35.97
2022-10-15T08:31:04.172Z,38.67
2022-10-15T08:33:32.632Z,40.17
2022-10-15T08:35:59.065Z,36.83
2022-10-15T08:38:25.450Z,42.87
2022-10-15T08:40:58.998Z,39.33
2022-10-15T08:43:38.491Z,34.77
2022-10-15T08:46:09.908Z,40.93
2022-10-15T08:48:44.467Z,33.07
2022-10-15T08:51:12.882Z,33.37
2022-10-15T08:53:53.775Z,33.93
2022-10-15T08:56:39.273Z,35.80
2022-10-15T08:59:17.564Z,39.27
2022-10-15T09:01:50.418Z,37.47
2022-10-15T09:04:19.576Z,35.97
2022-10-15T09:06:46.935Z,34.57
2022-10-15T09:09:19.425Z,34.47
2022-10-15T09:11:58.404Z,38.27
2022-10-15T09:14:28.679Z,35.47
2022-10-15T09:16:55.037Z,33.67
2022-10-15T09:19:22.482Z,34.90
2022-10-15T09:21:50.039Z,35.60
2022-10-15T09:24:27.796Z,34.57
2022-10-15T09:27:09.938Z,37.73
2022-10-15T09:29:47.361Z,32.27
2022-10-15T09:32:18.735Z,31.70
2022-10-15T09:34:50.875Z,25.50
2022-10-15T09:37:43.666Z,31.73
2022-10-15T09:40:22.279Z,28.57
2022-10-15T09:42:50.119Z,21.47
2022-10-15T09:45:16.699Z,26.45
2022-10-15T09:47:44.024Z,27.50
2022-10-15T09:50:12.162Z,20.77
2022-10-15T09:52:45.432Z,21.65
2022-10-15T09:55:28.963Z,25.38
2022-10-15T09:57:56.550Z,21.75
2022-10-15T10:00:22.938Z,22.88
2022-10-15T10:03:07.124Z,25.17
2022-10-15T10:05:35.569Z,24.40
2022-10-15T10:08:18.937Z,24.27
2022-10-15T10:10:53.334Z,25.33
2022-10-15T10:13:25.630Z,27.00
2022-10-15T10:15:58.325Z,28.27
2022-10-15T10:18:26.010Z,28.33
2022-10-15T10:20:59.158Z,24.63
2022-10-15T10:23:36.527Z,22.87
2022-10-15T10:26:05.628Z,24.70
2022-10-15T10:28:33.672Z,23.87
2022-10-15T10:31:04.921Z,22.60
2022-10-15T10:33:36.173Z,22.13
2022-10-15T10:36:03.342Z,18.90
2022-10-15T10:38:31.966Z,19.40
2022-10-15T10:41:07.722Z,23.67
2022-10-15T10:43:39.085Z,19.37
2022-10-15T10:46:16.423Z,23.73
2022-10-15T10:48:44.008Z,25.53
2022-10-15T10:51:12.013Z,22.63
2022-10-15T10:53:58.008Z,21.07
2022-10-15T10:56:28.160Z,20.10
2022-10-15T10:59:00.151Z,17.30
2022-10-15T11:01:27.244Z,17.27
2022-10-15T11:03:53.746Z,17.73
2022-10-15T11:06:27.451Z,20.70
2022-10-15T11:09:05.865Z,18.77
2022-10-15T11:11:37.159Z,19.17
2022-10-15T11:14:03.753Z,19.40
2022-10-15T11:16:49.177Z,17.40
2022-10-15T11:19:50.441Z,15.77
2022-10-15T11:22:23.352Z,18.57
2022-10-15T11:25:06.605Z,14.00
2022-10-15T11:27:45.919Z,14.20
2022-10-15T11:30:12.457Z,11.70
2022-10-15T11:33:06.041Z,9.77
2022-10-15T11:35:59.053Z,10.97
2022-10-15T11:38:29.682Z,11.27
2022-10-15T11:41:08.912Z,11.60
2022-10-15T11:43:38.243Z,13.23
2022-10-15T11:46:12.924Z,11.87
2022-10-15T11:48:57.593Z,12.07
2022-10-15T11:51:33.186Z,12.70
2022-10-15T11:54:13.373Z,12.00
2022-10-15T11:56:47.539Z,11.23
2022-10-15T11:59:46.569Z,5.90
2022-10-15T12:02:18.689Z,7.13
2022-10-15T12:04:47.973Z,11.73
2022-10-15T12:07:22.721Z,9.73
2022-10-15T12:09:52.367Z,7.53
2022-10-15T12:12:22.116Z,11.23
2022-10-15T12:15:01.124Z,6.67
2022-10-15T12:17:30.568Z,7.27
2022-10-15T12:20:00.820Z,3.80
2022-10-15T12:22:59.807Z,7.07
2022-10-15T12:25:35.022Z,4.33
2022-10-15T12:28:03.562Z,5.90
2022-10-15T12:30:34.344Z,8.07
2022-10-15T12:33:01.599Z,8.07
2022-10-15T12:35:35.506Z,6.20
2022-10-15T12:38:16.427Z,7.20
2022-10-15T12:40:42.810Z,6.57
2022-10-15T12:43:14.040Z,6.67
2022-10-15T12:45:41.667Z,5.50
2022-10-15T12:48:07.979Z,4.57
2022-10-15T12:50:35.266Z,7.00
2022-10-15T12:53:02.874Z,5.13
2022-10-15T12:55:38.934Z,4.87
2022-10-15T12:58:05.385Z,8.37
2022-10-15T13:00:33.917Z,6.13
2022-10-15T13:03:09.663Z,6.27
2022-10-15T13:05:36.172Z,4.00
2022-10-15T13:08:12.061Z,7.37
2022-10-15T13:10:46.171Z,5.50
2022-10-15T13:13:14.600Z,5.47
2022-10-15T13:15:41.283Z,4.83
2022-10-15T13:18:09.027Z,4.57
2022-10-15T13:20:40.147Z,3.63
2022-10-15T13:23:33.042Z,8.17
2022-10-15T13:26:19.347Z,6.63
2022-10-15T13:28:46.481Z,7.80
2022-10-15T13:31:30.850Z,8.63
2022-10-15T13:34:13.739Z,6.93
2022-10-15T13:36:40.130Z,5.87
2022-10-15T13:39:08.138Z,7.83
2022-10-15T13:41:36.998Z,8.60
2022-10-15T13:44:04.036Z,8.17
2022-10-15T13:46:31.903Z,11.10
2022-10-15T13:48:59.798Z,9.30
2022-10-15T13:51:32.434Z,10.87
2022-10-15T13:53:59.531Z,7.73
2022-10-15T13:56:30.703Z,14.37
2022-10-15T13:58:58.389Z,10.83
2022-10-15T14:01:25.122Z,12.13
2022-10-15T14:03:54.250Z,11.60
2022-10-15T14:06:21.819Z,11.67
2022-10-15T14:08:50.011Z,9.50
2022-10-15T14:11:17.772Z,9.67
2022-10-15T14:13:47.987Z,9.33
2022-10-15T14:16:31.412Z,14.53
2022-10-15T14:19:07.305Z,10.93
2022-10-15T14:21:34.491Z,12.57
2022-10-15T14:24:15.395Z,13.37
2022-10-15T14:26:41.966Z,12.57
2022-10-15T14:29:16.845Z,13.70
2022-10-15T14:31:46.094Z,15.83
2022-10-15T14:34:29.785Z,15.27
2022-10-15T14:36:56.301Z,12.93
2022-10-15T14:39:27.186Z,13.60
2022-10-15T14:41:57.443Z,14.83
2022-10-15T14:44:23.873Z,14.57
2022-10-15T14:46:51.964Z,12.93
2022-10-15T14:49:18.311Z,17.93
2022-10-15T14:51:44.887Z,17.63
2022-10-15T14:54:20.385Z,20.03
2022-10-15T14:56:48.716Z,20.37
2022-10-15T14:59:16.960Z,21.40
2022-10-15T15:01:51.489Z,16.93
2022-10-15T15:04:36.305Z,18.23
2022-10-15T15:07:02.631Z,16.77
2022-10-15T15:09:29.012Z,17.70
2022-10-15T15:11:56.075Z,13.87
2022-10-15T15:14:23.931Z,16.57
2022-10-15T15:16:50.272Z,16.80
2022-10-15T15:19:16.634Z,14.27
2022-10-15T15:21:45.355Z,14.37
2022-10-15T15:24:11.876Z,14.23
2022-10-15T15:26:38.226Z,16.77
2022-10-15T15:29:13.591Z,16.33
2022-10-15T15:31:40.252Z,13.73
2022-10-15T15:34:06.640Z,19.70
2022-10-15T15:36:32.966Z,18.03
2022-10-15T15:38:59.875Z,14.43
2022-10-15T15:41:26.258Z,13.77
2022-10-15T15:43:53.511Z,19.20
2022-10-15T15:46:19.838Z,20.67
2022-10-15T15:48:46.249Z,16.27
2022-10-15T15:51:29.193Z,17.83
2022-10-15T15:53:55.802Z,18.30
2022-10-15T15:56:22.804Z,19.53
2022-10-15T15:58:52.244Z,19.70
2022-10-15T16:01:19.032Z,18.60
2022-10-15T16:03:45.574Z,18.93
2022-10-15T16:06:13.311Z,19.17
2022-10-15T16:08:39.658Z,20.23
2022-10-15T16:11:06.287Z,16.93
2022-10-15T16:13:33.011Z,16.53
2022-10-15T16:15:59.338Z,18.93
2022-10-15T16:18:25.722Z,18.63
2022-10-15T16:20:52.239Z,17.93
2022-10-15T16:23:18.639Z,16.53
2022-10-15T16:25:45.009Z,17.90
2022-10-15T16:28:11.413Z,21.63
2022-10-15T16:30:37.824Z,17.83
2022-10-15T16:33:04.278Z,21.53
2022-10-15T16:35:30.662Z,18.87
2022-10-15T16:37:57.057Z,16.53
2022-10-15T16:40:23.440Z,20.43
2022-10-15T16:42:49.909Z,17.93
2022-10-15T16:45:16.639Z,18.87
2022-10-15T16:47:42.995Z,25.90
2022-10-15T16:50:09.536Z,19.43
2022-10-15T16:52:35.980Z,18.00
2022-10-15T16:55:02.400Z,20.53
2022-10-15T16:57:28.726Z,18.93
2022-10-15T16:59:55.747Z,17.47
2022-10-15T17:02:22.510Z,14.73
2022-10-15T17:04:49.054Z,19.07
2022-10-15T17:07:15.966Z,18.13
2022-10-15T17:09:44.951Z,13.40
2022-10-15T17:12:11.508Z,13.00
2022-10-15T17:14:37.929Z,14.77
2022-10-15T17:17:04.364Z,14.33
2022-10-15T17:19:33.358Z,13.57
2022-10-15T17:22:00.835Z,14.63
2022-10-15T17:24:27.187Z,12.20
2022-10-15T17:26:54.794Z,11.10
2022-10-15T17:29:23.029Z,11.83
2022-10-15T17:31:50.397Z,10.83
2022-10-15T17:34:17.053Z,14.13
2022-10-15T17:36:47.216Z,12.33
2022-10-15T17:39:15.181Z,12.83
2022-10-15T17:41:41.611Z,13.57
2022-10-15T17:44:08.448Z,15.80
2022-10-15T17:46:34.924Z,11.90
2022-10-15T17:49:01.874Z,14.27
2022-10-15T17:51:29.458Z,13.90
2022-10-15T17:53:55.922Z,20.67
2022-10-15T17:56:30.042Z,12.90
2022-10-15T17:58:57.165Z,12.23
2022-10-15T18:01:39.358Z,12.60
2022-10-15T18:04:06.316Z,13.50
2022-10-15T18:06:32.913Z,11.10
2022-10-15T18:09:01.979Z,13.17
2022-10-15T18:11:30.283Z,11.03
2022-10-15T18:13:56.695Z,10.43
2022-10-15T18:16:23.502Z,13.50
2022-10-15T18:18:49.869Z,12.80
2022-10-15T18:21:17.206Z,10.60
2022-10-15T18:23:43.601Z,10.23
2022-10-15T18:26:12.922Z,11.57
2022-10-15T18:28:41.559Z,11.73
2022-10-15T18:31:08.024Z,10.03
2022-10-15T18:33:40.066Z,9.77
2022-10-15T18:36:07.631Z,10.57
2022-10-15T18:38:34.149Z,10.30
2022-10-15T18:41:00.511Z,10.03
2022-10-15T18:43:26.924Z,10.47
2022-10-15T18:45:53.249Z,8.93
2022-10-15T18:48:19.674Z,11.33
2022-10-15T18:53:33.722Z,11.37
2022-10-15T18:56:00.086Z,13.70
2022-10-15T18:58:26.436Z,9.13
2022-10-15T19:00:52.791Z,7.53
2022-10-15T19:03:19.165Z,8.20
2022-10-15T19:05:48.372Z,9.97
2022-10-15T19:08:19.117Z,9.43
2022-10-15T19:10:47.858Z,8.50
2022-10-15T19:13:14.610Z,10.07
2022-10-15T19:15:41.356Z,9.23
2022-10-15T19:18:11.467Z,9.53
2022-10-15T19:20:39.038Z,7.33
2022-10-15T19:23:05.656Z,9.03
2022-10-15T19:25:32.114Z,8.13
2022-10-15T19:27:58.800Z,8.40
2022-10-15T19:30:25.794Z,6.47
2022-10-15T19:32:52.197Z,6.47
2022-10-15T19:35:18.556Z,9.17
2022-10-15T19:37:44.882Z,10.00
2022-10-15T19:40:11.289Z,5.60
2022-10-15T19:42:37.987Z,7.83
2022-10-15T19:45:04.596Z,6.10
2022-10-15T19:47:31.019Z,7.97
2022-10-15T19:49:57.362Z,6.67
2022-10-15T19:52:23.694Z,5.27
2022-10-15T19:54:50.056Z,6.03
2022-10-15T19:57:16.476Z,5.20
2022-10-15T19:59:42.825Z,6.57
2022-10-15T20:02:10.566Z,8.00
2022-10-15T20:04:36.934Z,7.63
2022-10-15T20:07:03.319Z,6.30
2022-10-15T20:09:29.767Z,5.00
2022-10-15T20:11:56.107Z,6.67
2022-10-15T20:14:22.456Z,6.50
2022-10-15T20:16:48.848Z,5.40
2022-10-15T20:19:15.207Z,6.20
2022-10-15T20:21:41.624Z,7.93
2022-10-15T20:24:08.035Z,8.00
2022-10-15T20:26:34.463Z,6.10
2022-10-15T20:29:01.087Z,6.70
2022-10-15T20:31:32.262Z,7.60
2022-10-15T20:33:58.778Z,5.77
2022-10-15T20:36:27.322Z,7.80
2022-10-15T20:38:53.967Z,6.67
2022-10-15T20:41:20.312Z,7.43
2022-10-15T20:43:49.558Z,7.00
2022-10-15T20:46:18.172Z,9.07
2022-10-15T20:48:45.078Z,8.17
2022-10-15T20:51:13.613Z,7.10
2022-10-15T20:53:40.447Z,16.60
2022-10-15T20:56:07.009Z,10.00
2022-10-15T20:58:33.340Z,10.97
2022-10-15T21:00:59.902Z,8.50
2022-10-15T21:03:26.743Z,8.47
2022-10-15T21:05:53.988Z,12.70
2022-10-15T21:08:20.425Z,8.67
2022-10-15T21:10:46.742Z,14.83
2022-10-15T21:13:13.146Z,11.67
2022-10-15T21:15:39.566Z,15.40
2022-10-15T21:18:05.974Z,8.97
2022-10-15T21:20:32.343Z,11.07
2022-10-15T21:22:58.730Z,10.93
2022-10-15T21:25:25.190Z,9.57
2022-10-15T21:27:52.137Z,8.80
2022-10-15T21:30:18.812Z,9.40
2022-10-15T21:32:45.178Z,10.10
2022-10-15T21:35:11.570Z,10.77
2022-10-15T21:37:38.494Z,8.40
2022-10-15T21:40:07.575Z,14.77
2022-10-15T21:42:33.984Z,11.03
2022-10-15T21:45:00.345Z,11.37
2022-10-15T21:47:27.072Z,9.80
2022-10-15T21:49:53.595Z,8.90
2022-10-15T21:52:19.978Z,10.73
2022-10-15T21:54:46.307Z,8.90
2022-10-15T21:57:12.758Z,11.30
2022-10-15T21:59:39.144Z,9.63
2022-10-15T22:02:05.585Z,8.47
2022-10-15T22:04:35.471Z,8.70
2022-10-15T22:07:02.008Z,11.07
2022-10-15T22:09:28.446Z,8.37
2022-10-15T22:11:54.823Z,10.43
2022-10-15T22:14:21.702Z,6.53
2022-10-15T22:16:48.066Z,7.37
2022-10-15T22:19:14.955Z,8.13
2022-10-15T22:21:41.337Z,8.70
2022-10-15T22:24:12.872Z,8.27
2022-10-15T22:26:40.642Z,8.57
2022-10-15T22:29:08.156Z,11.03
2022-10-15T22:31:34.834Z,11.80
2022-10-15T22:34:01.715Z,8.43
2022-10-15T22:36:29.288Z,10.73
2022-10-15T22:38:57.019Z,7.73
2022-10-15T22:41:23.617Z,9.93
2022-10-15T22:43:50.058Z,7.43
2022-10-15T22:46:16.386Z,9.77
2022-10-15T22:48:43.138Z,8.87
2022-10-15T22:51:10.958Z,10.03
2022-10-15T22:53:37.406Z,12.13
2022-10-15T22:56:05.366Z,9.07
2022-10-15T22:58:32.533Z,12.20
2022-10-15T23:01:08.346Z,13.30
2022-10-15T23:03:34.982Z,11.63
2022-10-15T23:06:01.374Z,7.53
2022-10-15T23:08:27.793Z,8.77
2022-10-15T23:10:54.156Z,10.63
2022-10-15T23:13:20.559Z,11.37
2022-10-15T23:15:46.909Z,10.27
2022-10-15T23:18:13.259Z,12.20
2022-10-15T23:20:39.569Z,11.23
2022-10-15T23:23:06.504Z,12.00
2022-10-15T23:25:39.108Z,9.90
2022-10-15T23:28:05.592Z,8.77
2022-10-15T23:30:31.922Z,12.03
2022-10-15T23:32:58.231Z,10.07
2022-10-15T23:35:24.623Z,10.77
2022-10-15T23:37:51.110Z,10.60
2022-10-15T23:40:17.467Z,13.17
2022-10-15T23:42:44.634Z,14.80
2022-10-15T23:45:11.041Z,9.93
2022-10-15T23:47:37.359Z,12.13
2022-10-15T23:50:03.788Z,13.67
2022-10-15T23:52:31.210Z,9.50
2022-10-15T23:54:57.574Z,10.47
2022-10-15T23:57:24.510Z,9.57
2022-10-15T23:59:51.105Z,14.40
